KSOW/SOW METAR and TAF weather

Enter ICAO airport designator
Station Type Date Time Source
KSOW METAR 2019/04/22 16:35 UTC NOAA

KSOW 221635Z AUTO 19011KT 10SM CLR 15/M03 A3009 RMK A01


Station Type Date Time Source
KSOW Decoded METAR 2019/04/22 16:35 UTC NOAA

Show Low, Show Low Regional Airport, AZ, United States (KSOW) 34-15-55N 110-00-20W
Apr 22, 2019 - 12:35 PM EDT / 2019.04.22 1635 UTC
Wind: from the S (190 degrees) at 13 MPH (11 KT):0
Visibility: 10 mile(s):0
Sky conditions: clear
Temperature: 59 F (15 C)
Dew Point: 26 F (-3 C)
Relative Humidity: 28%
Pressure (altimeter): 30.09 in. Hg (1018 hPa)
ob: KSOW 221635Z AUTO 19011KT 10SM CLR 15/M03 A3009 RMK A01
cycle: 16

Station Type Date Time Source
KSOW TAF UTC NOAA

Error!

Example: see airport list